createdAt,value
2023-04-14T00:00:50.558Z,4.90
2023-04-14T00:03:17.427Z,3.58
2023-04-14T00:05:43.857Z,4.68
2023-04-14T00:08:10.251Z,5.68
2023-04-14T00:10:36.524Z,3.45
2023-04-14T00:13:02.789Z,3.83
2023-04-14T00:15:29.063Z,2.22
2023-04-14T00:17:55.346Z,5.20
2023-04-14T00:20:21.597Z,6.30
2023-04-14T00:22:47.894Z,6.38
2023-04-14T00:25:14.120Z,3.78
2023-04-14T00:27:40.595Z,3.00
2023-04-14T00:30:07.316Z,5.95
2023-04-14T00:32:33.578Z,4.57
2023-04-14T00:35:03.008Z,4.97
2023-04-14T00:37:29.942Z,5.80
2023-04-14T00:39:56.316Z,4.68
2023-04-14T00:42:22.593Z,7.05
2023-04-14T00:44:48.897Z,6.47
2023-04-14T00:47:16.203Z,4.03
2023-04-14T00:49:42.400Z,4.57
2023-04-14T00:52:08.636Z,5.20
2023-04-14T00:54:36.084Z,3.03
2023-04-14T00:57:02.712Z,8.50
2023-04-14T00:59:29.648Z,4.57
2023-04-14T01:01:56.708Z,5.28
2023-04-14T01:04:23.241Z,5.40
2023-04-14T01:06:49.525Z,5.90
2023-04-14T01:09:16.264Z,6.38
2023-04-14T01:11:45.258Z,5.78
2023-04-14T01:14:17.521Z,7.50
2023-04-14T01:16:50.108Z,3.95
2023-04-14T01:19:35.210Z,3.20
2023-04-14T01:22:06.052Z,3.67
2023-04-14T01:24:51.804Z,3.78
2023-04-14T01:27:36.852Z,5.70
2023-04-14T01:30:09.187Z,3.30
2023-04-14T01:32:37.657Z,6.07
2023-04-14T01:35:08.117Z,6.03
2023-04-14T01:37:35.505Z,4.45
2023-04-14T01:40:05.702Z,6.68
2023-04-14T01:42:33.669Z,5.60
2023-04-14T01:45:03.614Z,4.85
2023-04-14T01:47:30.266Z,5.70
2023-04-14T01:49:56.887Z,5.57
2023-04-14T01:52:23.302Z,5.43
2023-04-14T01:54:51.314Z,10.00
2023-04-14T01:57:20.146Z,5.32
2023-04-14T01:59:48.083Z,7.43
2023-04-14T02:02:15.562Z,4.07
2023-04-14T02:04:42.445Z,5.72
2023-04-14T02:07:10.036Z,7.50
2023-04-14T02:09:36.400Z,6.68
2023-04-14T02:12:03.393Z,6.10
2023-04-14T02:14:31.034Z,4.45
2023-04-14T02:19:25.406Z,5.55
2023-04-14T02:21:52.359Z,5.03
2023-04-14T02:24:19.105Z,6.88
2023-04-14T02:26:52.954Z,8.57
2023-04-14T02:29:21.443Z,6.78
2023-04-14T02:31:50.320Z,5.45
2023-04-14T02:34:18.719Z,5.47
2023-04-14T02:36:47.697Z,5.13
2023-04-14T02:39:17.700Z,7.00
2023-04-14T02:41:44.545Z,5.72
2023-04-14T02:44:16.487Z,6.78
2023-04-14T02:46:45.899Z,6.00
2023-04-14T02:49:13.531Z,7.55
2023-04-14T02:51:40.290Z,7.20
2023-04-14T02:54:07.033Z,7.47
2023-04-14T02:56:34.254Z,5.95
2023-04-14T02:59:02.092Z,7.80
2023-04-14T03:01:29.039Z,7.65
2023-04-14T03:03:56.447Z,7.55
2023-04-14T03:06:24.502Z,5.03
2023-04-14T03:08:51.433Z,7.03
2023-04-14T03:11:17.794Z,7.68
2023-04-14T03:13:45.140Z,6.50
2023-04-14T03:16:12.049Z,6.32
2023-04-14T03:18:38.422Z,5.22
2023-04-14T03:21:04.974Z,7.20
2023-04-14T03:23:31.803Z,7.22
2023-04-14T03:25:58.592Z,9.23
2023-04-14T03:28:25.273Z,8.25
2023-04-14T03:30:52.307Z,8.30
2023-04-14T03:33:21.699Z,7.13
2023-04-14T03:35:48.138Z,7.35
2023-04-14T03:38:15.608Z,9.25
2023-04-14T03:40:44.146Z,7.20
2023-04-14T03:43:12.258Z,6.68
2023-04-14T03:45:40.083Z,7.63
2023-04-14T03:48:10.591Z,8.45
2023-04-14T03:50:40.218Z,5.10
2023-04-14T03:53:08.384Z,7.90
2023-04-14T03:55:35.858Z,4.65
2023-04-14T03:58:02.314Z,7.95
2023-04-14T04:00:29.379Z,6.22
2023-04-14T04:02:56.129Z,6.25
2023-04-14T04:05:22.933Z,7.18
2023-04-14T04:07:52.209Z,5.68
2023-04-14T04:10:19.289Z,9.70
2023-04-14T04:12:47.120Z,7.57
2023-04-14T04:15:13.577Z,7.40
2023-04-14T04:17:41.576Z,5.82
2023-04-14T04:20:08.980Z,6.85
2023-04-14T04:22:36.348Z,7.93
2023-04-14T04:25:02.652Z,6.15
2023-04-14T04:27:29.297Z,5.25
2023-04-14T04:29:55.999Z,10.23
2023-04-14T04:32:22.438Z,11.25
2023-04-14T04:34:49.441Z,5.85
2023-04-14T04:37:16.095Z,6.32
2023-04-14T04:39:42.341Z,9.18
2023-04-14T04:42:08.528Z,8.57
2023-04-14T04:44:35.063Z,7.68
2023-04-14T04:47:01.558Z,7.88
2023-04-14T04:49:28.095Z,9.55
2023-04-14T04:51:54.362Z,7.82
2023-04-14T04:54:20.617Z,9.23
2023-04-14T04:56:46.821Z,10.07
2023-04-14T04:59:13.156Z,6.82
2023-04-14T05:01:39.526Z,8.40
2023-04-14T05:04:05.964Z,7.85
2023-04-14T05:06:36.983Z,7.75
2023-04-14T05:09:04.173Z,10.40
2023-04-14T05:11:31.325Z,7.82
2023-04-14T05:13:57.598Z,9.98
2023-04-14T05:16:23.928Z,9.57
2023-04-14T05:18:50.503Z,9.73
2023-04-14T05:21:16.814Z,7.03
2023-04-14T05:23:43.779Z,7.10
2023-04-14T05:26:27.040Z,10.13
2023-04-14T05:28:58.920Z,6.78
2023-04-14T05:31:25.376Z,9.68
2023-04-14T05:33:51.709Z,5.22
2023-04-14T05:36:17.988Z,6.57
2023-04-14T05:38:44.602Z,8.07
2023-04-14T05:41:12.000Z,8.18
2023-04-14T05:43:38.685Z,7.72
2023-04-14T05:46:05.043Z,6.60
2023-04-14T05:48:33.104Z,9.05
2023-04-14T05:50:59.359Z,7.13
2023-04-14T05:53:25.758Z,7.43
2023-04-14T05:55:52.205Z,6.95
2023-04-14T05:58:18.433Z,8.38
2023-04-14T06:00:44.720Z,6.85
2023-04-14T06:03:11.290Z,8.40
2023-04-14T06:05:37.704Z,8.43
2023-04-14T06:08:03.956Z,6.30
2023-04-14T06:10:31.964Z,8.07
2023-04-14T06:12:58.373Z,7.55
2023-04-14T06:15:28.207Z,6.63
2023-04-14T06:17:54.474Z,9.65
2023-04-14T06:20:21.726Z,9.32
2023-04-14T06:22:48.074Z,8.80
2023-04-14T06:25:14.355Z,8.00
2023-04-14T06:27:40.689Z,9.75
2023-04-14T06:30:07.870Z,8.52
2023-04-14T06:32:34.202Z,7.22
2023-04-14T06:35:00.990Z,9.55
2023-04-14T06:37:27.201Z,6.78
2023-04-14T06:39:53.434Z,8.32
2023-04-14T06:42:19.627Z,8.38
2023-04-14T06:44:46.071Z,11.30
2023-04-14T06:47:12.359Z,7.53
2023-04-14T06:49:38.898Z,6.35
2023-04-14T06:52:05.542Z,6.45
2023-04-14T06:54:31.967Z,8.18
2023-04-14T06:57:00.027Z,6.65
2023-04-14T06:59:29.150Z,10.68
2023-04-14T07:01:55.620Z,9.25
2023-04-14T07:04:22.516Z,6.63
2023-04-14T07:06:48.716Z,9.40
2023-04-14T07:09:14.924Z,7.40
2023-04-14T07:11:41.924Z,7.55
2023-04-14T07:14:08.232Z,9.38
2023-04-14T07:16:34.502Z,7.70
2023-04-14T07:19:00.788Z,8.05
2023-04-14T07:21:27.234Z,10.07
2023-04-14T07:23:53.505Z,7.65
2023-04-14T07:26:19.757Z,7.72
2023-04-14T07:28:45.944Z,7.95
2023-04-14T07:31:12.566Z,9.75
2023-04-14T07:33:39.820Z,6.30
2023-04-14T07:36:07.070Z,7.03
2023-04-14T07:38:33.728Z,4.05
2023-04-14T07:41:03.477Z,6.20
2023-04-14T07:43:34.974Z,6.15
2023-04-14T07:46:05.486Z,6.60
2023-04-14T07:48:32.507Z,5.72
2023-04-14T07:50:58.734Z,7.63
2023-04-14T07:53:25.186Z,6.15
2023-04-14T07:55:51.524Z,4.82
2023-04-14T07:58:17.845Z,4.15
2023-04-14T08:00:44.145Z,6.35
2023-04-14T08:03:10.567Z,4.70
2023-04-14T08:05:38.092Z,5.43
2023-04-14T08:08:04.600Z,9.38
2023-04-14T08:10:30.800Z,7.00
2023-04-14T08:12:57.082Z,6.22
2023-04-14T08:15:23.351Z,5.88
2023-04-14T08:17:49.649Z,6.25
2023-04-14T08:20:16.143Z,9.38
2023-04-14T08:22:43.109Z,6.35
2023-04-14T08:25:12.005Z,7.40
2023-04-14T08:27:38.640Z,9.50
2023-04-14T08:30:05.607Z,5.78
2023-04-14T08:32:31.809Z,10.75
2023-04-14T08:35:38.112Z,5.80
2023-04-14T08:37:44.260Z,6.25
2023-04-14T08:40:11.216Z,8.20
2023-04-14T08:42:37.494Z,5.30
2023-04-14T08:45:03.854Z,6.63
2023-04-14T08:47:33.443Z,6.22
2023-04-14T08:50:03.998Z,7.43
2023-04-14T08:52:31.119Z,5.23
2023-04-14T08:54:58.010Z,9.88
2023-04-14T08:57:25.882Z,5.10
2023-04-14T08:59:52.544Z,4.60
2023-04-14T09:02:18.963Z,6.47
2023-04-14T09:04:45.861Z,5.72
2023-04-14T09:07:12.553Z,4.85
2023-04-14T09:09:38.851Z,4.43
2023-04-14T09:12:05.210Z,5.75
2023-04-14T09:14:31.771Z,7.55
2023-04-14T09:16:58.068Z,3.45
2023-04-14T09:19:27.092Z,5.90
2023-04-14T09:21:55.157Z,5.55
2023-04-14T09:24:31.255Z,6.35
2023-04-14T09:26:58.728Z,6.07
2023-04-14T09:29:25.306Z,5.82
2023-04-14T09:31:51.832Z,4.68
2023-04-14T09:34:18.930Z,8.70
2023-04-14T09:37:07.275Z,8.35
2023-04-14T09:39:34.449Z,9.50
2023-04-14T09:42:01.538Z,9.13
2023-04-14T09:44:28.043Z,7.25
2023-04-14T09:46:58.219Z,4.28
2023-04-14T09:49:24.995Z,7.97
2023-04-14T09:51:52.524Z,6.07
2023-04-14T09:54:28.859Z,5.40
2023-04-14T09:56:55.713Z,3.65
2023-04-14T09:59:40.305Z,4.15
2023-04-14T10:02:07.582Z,5.32
2023-04-14T10:04:34.472Z,6.53
2023-04-14T10:07:00.965Z,6.55
2023-04-14T10:09:27.976Z,3.53
2023-04-14T10:12:21.541Z,8.32
2023-04-14T10:14:48.038Z,6.20
2023-04-14T10:17:14.329Z,5.88
2023-04-14T10:19:40.697Z,6.00
2023-04-14T10:22:06.901Z,3.78
2023-04-14T10:24:33.489Z,5.55
2023-04-14T10:27:02.791Z,5.05
2023-04-14T10:29:29.683Z,5.82
2023-04-14T10:32:03.273Z,4.03
2023-04-14T10:34:30.522Z,5.85
2023-04-14T10:37:11.729Z,3.90
2023-04-14T10:39:38.018Z,4.00
2023-04-14T10:42:04.209Z,3.67
2023-04-14T10:44:34.658Z,8.55
2023-04-14T10:47:05.041Z,5.77
2023-04-14T10:49:33.188Z,6.50
2023-04-14T10:52:06.548Z,5.82
2023-04-14T10:54:51.366Z,5.45
2023-04-14T10:57:18.730Z,4.53
2023-04-14T10:59:48.944Z,4.80
2023-04-14T11:02:34.543Z,4.07
2023-04-14T11:05:01.746Z,5.68
2023-04-14T11:07:28.878Z,7.65
2023-04-14T11:09:59.032Z,2.35
2023-04-14T11:12:28.720Z,3.35
2023-04-14T11:14:56.421Z,6.57
2023-04-14T11:17:25.342Z,4.00
2023-04-14T11:19:57.929Z,4.25
2023-04-14T11:22:43.655Z,3.72
2023-04-14T11:25:14.053Z,4.50
2023-04-14T11:27:40.882Z,3.65
2023-04-14T11:30:13.729Z,2.45
2023-04-14T11:32:53.613Z,4.82
2023-04-14T11:35:21.059Z,4.38
2023-04-14T11:37:47.339Z,3.90
2023-04-14T11:40:14.297Z,5.97
2023-04-14T11:42:44.518Z,2.53
2023-04-14T11:45:12.676Z,3.60
2023-04-14T11:47:39.058Z,5.30
2023-04-14T11:50:06.746Z,3.95
2023-04-14T11:52:33.691Z,5.72
2023-04-14T11:55:01.101Z,4.88
2023-04-14T11:57:27.383Z,4.03
2023-04-14T11:59:55.970Z,4.40
2023-04-14T12:02:22.857Z,3.08
2023-04-14T12:04:50.616Z,4.22
2023-04-14T12:07:18.087Z,3.58
2023-04-14T12:09:45.423Z,4.10
2023-04-14T12:12:12.362Z,4.00
2023-04-14T12:14:39.763Z,2.60
2023-04-14T12:17:06.838Z,2.97
2023-04-14T12:19:33.441Z,2.80
2023-04-14T12:21:59.658Z,4.53
2023-04-14T12:24:32.922Z,4.80
2023-04-14T12:26:59.448Z,2.53
2023-04-14T12:29:25.783Z,3.47
2023-04-14T12:31:53.433Z,2.33
2023-04-14T12:34:29.480Z,2.80
2023-04-14T12:36:56.417Z,3.03
2023-04-14T12:39:25.526Z,3.72
2023-04-14T12:41:51.953Z,3.72
2023-04-14T12:44:20.499Z,2.95
2023-04-14T12:46:53.724Z,4.00
2023-04-14T12:49:33.317Z,2.85
2023-04-14T12:52:00.253Z,3.03
2023-04-14T12:54:26.573Z,1.80
2023-04-14T12:56:53.434Z,5.65
2023-04-14T12:59:19.729Z,5.22
2023-04-14T13:01:46.002Z,3.50
2023-04-14T13:04:12.458Z,3.47
2023-04-14T13:06:38.759Z,3.75
2023-04-14T13:09:05.063Z,3.33
2023-04-14T13:11:31.611Z,5.10
2023-04-14T13:13:57.802Z,4.20
2023-04-14T13:16:26.696Z,5.63
2023-04-14T13:18:53.997Z,4.97
2023-04-14T13:21:20.448Z,6.90
2023-04-14T13:23:46.682Z,5.18
2023-04-14T13:26:12.963Z,5.22
2023-04-14T13:28:39.622Z,4.55
2023-04-14T13:31:05.852Z,6.60
2023-04-14T13:33:32.546Z,4.50
2023-04-14T13:35:58.791Z,3.35
2023-04-14T13:38:25.018Z,3.05
2023-04-14T13:40:51.352Z,6.20
2023-04-14T13:43:18.680Z,3.85
2023-04-14T13:45:45.324Z,4.20
2023-04-14T13:48:11.632Z,1.45
2023-04-14T13:50:37.919Z,3.72
2023-04-14T13:53:04.193Z,4.53
2023-04-14T13:55:30.667Z,1.90
2023-04-14T13:57:56.911Z,2.60
2023-04-14T14:00:23.141Z,2.17
2023-04-14T14:02:49.465Z,2.72
2023-04-14T14:05:15.897Z,4.88
2023-04-14T14:07:43.287Z,2.75
2023-04-14T14:10:10.652Z,2.72
2023-04-14T14:12:37.506Z,1.85
2023-04-14T14:15:04.787Z,1.77
2023-04-14T14:17:31.456Z,3.60
2023-04-14T14:19:57.999Z,3.15
2023-04-14T14:22:24.234Z,2.95
2023-04-14T14:24:50.502Z,3.00
2023-04-14T14:27:16.951Z,2.15
2023-04-14T14:29:43.251Z,5.40
2023-04-14T14:32:09.725Z,5.13
2023-04-14T14:34:36.219Z,2.63
2023-04-14T14:37:03.013Z,1.60
2023-04-14T14:39:32.047Z,2.65
2023-04-14T14:41:58.636Z,2.50
2023-04-14T14:44:24.885Z,3.70
2023-04-14T14:46:52.747Z,4.70
2023-04-14T14:49:19.571Z,3.28
2023-04-14T14:51:46.057Z,2.60
2023-04-14T14:54:12.489Z,3.60
2023-04-14T14:56:39.196Z,2.42
2023-04-14T14:59:05.760Z,3.60
2023-04-14T15:01:32.958Z,3.40
2023-04-14T15:03:59.335Z,2.88
2023-04-14T15:06:26.020Z,3.72
2023-04-14T15:08:52.353Z,4.50
2023-04-14T15:11:18.715Z,3.08
2023-04-14T15:13:45.055Z,3.08
2023-04-14T15:16:11.342Z,3.85
2023-04-14T15:18:37.709Z,3.22
2023-04-14T15:21:04.083Z,2.33
2023-04-14T15:23:34.334Z,3.88
2023-04-14T15:26:00.805Z,7.65
2023-04-14T15:28:28.236Z,3.45
2023-04-14T15:30:54.512Z,3.67
2023-04-14T15:33:21.040Z,3.65
2023-04-14T15:35:47.378Z,2.78
2023-04-14T15:38:13.676Z,4.68
2023-04-14T15:40:39.917Z,2.25
2023-04-14T15:43:07.088Z,2.92
2023-04-14T15:45:33.498Z,2.70
2023-04-14T15:47:59.911Z,2.67
2023-04-14T15:50:26.292Z,2.92
2023-04-14T15:52:52.720Z,3.50
2023-04-14T15:55:19.247Z,5.55
2023-04-14T15:57:46.140Z,2.92
2023-04-14T16:00:12.768Z,3.42
2023-04-14T16:02:39.129Z,3.22
2023-04-14T16:05:05.726Z,3.55
2023-04-14T16:07:35.187Z,3.45
2023-04-14T16:10:01.721Z,2.40
2023-04-14T16:12:27.934Z,4.53
2023-04-14T16:14:54.468Z,3.67
2023-04-14T16:17:21.873Z,2.65
2023-04-14T16:19:48.211Z,4.45
2023-04-14T16:22:14.404Z,2.97
2023-04-14T16:24:40.838Z,1.85
2023-04-14T16:27:07.619Z,2.83
2023-04-14T16:29:33.949Z,3.05
2023-04-14T16:32:00.200Z,3.00
2023-04-14T16:34:26.498Z,2.28
2023-04-14T16:36:52.759Z,4.13
2023-04-14T16:39:20.339Z,3.08
2023-04-14T16:41:46.597Z,3.75
2023-04-14T16:44:13.315Z,3.25
2023-04-14T16:46:39.542Z,2.60
2023-04-14T16:49:07.688Z,5.40
2023-04-14T16:51:33.928Z,4.88
2023-04-14T16:54:00.493Z,3.10
2023-04-14T16:56:27.139Z,2.55
2023-04-14T16:58:53.334Z,3.47
2023-04-14T17:01:19.628Z,2.78
2023-04-14T17:03:46.118Z,5.10
2023-04-14T17:06:12.460Z,5.80
2023-04-14T17:08:39.044Z,3.72
2023-04-14T17:11:05.302Z,4.20
2023-04-14T17:13:31.513Z,3.30
2023-04-14T17:16:06.182Z,2.47
2023-04-14T17:18:34.955Z,2.90
2023-04-14T17:21:01.204Z,1.80
2023-04-14T17:23:27.640Z,1.83
2023-04-14T17:25:55.109Z,4.93
2023-04-14T17:28:22.638Z,4.28
2023-04-14T17:30:49.757Z,3.03
2023-04-14T17:33:17.225Z,3.40
2023-04-14T17:35:43.521Z,2.55
2023-04-14T17:38:10.509Z,2.70
2023-04-14T17:40:36.978Z,3.97
2023-04-14T17:43:04.418Z,2.90
2023-04-14T17:45:30.825Z,2.85
2023-04-14T17:47:57.152Z,2.90
2023-04-14T17:50:24.300Z,4.55
2023-04-14T17:52:51.076Z,4.28
2023-04-14T17:55:17.608Z,2.30
2023-04-14T17:57:45.046Z,3.88
2023-04-14T18:00:11.581Z,2.72
2023-04-14T18:02:41.312Z,2.15
2023-04-14T18:05:08.429Z,1.48
2023-04-14T18:07:34.846Z,3.55
2023-04-14T18:10:01.097Z,1.90
2023-04-14T18:12:27.637Z,2.58
2023-04-14T18:14:53.915Z,3.20
2023-04-14T18:17:20.368Z,3.17
2023-04-14T18:19:46.829Z,3.05
2023-04-14T18:22:13.040Z,2.58
2023-04-14T18:29:37.700Z,2.88
2023-04-14T18:32:04.039Z,3.65
2023-04-14T18:34:30.881Z,4.70
2023-04-14T18:36:57.377Z,2.72
2023-04-14T18:39:24.957Z,3.17
2023-04-14T18:41:51.174Z,3.58
2023-04-14T18:44:17.463Z,3.13
2023-04-14T18:46:44.625Z,3.03
2023-04-14T18:49:10.965Z,3.97
2023-04-14T18:51:37.182Z,2.92
2023-04-14T18:54:03.654Z,3.20
2023-04-14T18:56:30.123Z,3.33
2023-04-14T18:58:57.413Z,4.65
2023-04-14T19:01:23.813Z,3.92
2023-04-14T19:03:50.354Z,3.95
2023-04-14T19:06:16.961Z,4.82
2023-04-14T19:08:43.227Z,5.22
2023-04-14T19:11:11.300Z,4.25
2023-04-14T19:13:38.510Z,4.75
2023-04-14T19:16:05.807Z,2.75
2023-04-14T19:18:32.573Z,3.05
2023-04-14T19:20:58.781Z,6.43
2023-04-14T19:23:24.961Z,5.90
2023-04-14T19:25:51.380Z,3.58
2023-04-14T19:28:17.938Z,4.25
2023-04-14T19:30:45.446Z,2.97
2023-04-14T19:33:12.114Z,2.90
2023-04-14T19:35:39.114Z,4.90
2023-04-14T19:38:05.692Z,3.70
2023-04-14T19:40:31.955Z,5.50
2023-04-14T19:42:58.544Z,6.23
2023-04-14T19:45:24.983Z,5.68
2023-04-14T19:47:51.436Z,6.65
2023-04-14T19:50:17.728Z,5.50
2023-04-14T19:52:46.422Z,6.32
2023-04-14T19:55:13.199Z,5.00
2023-04-14T19:57:39.581Z,6.72
2023-04-14T20:00:06.851Z,5.43
2023-04-14T20:02:35.795Z,5.95
2023-04-14T20:05:02.087Z,8.00
2023-04-14T20:07:28.377Z,9.68
2023-04-14T20:09:54.662Z,11.38
2023-04-14T20:12:20.881Z,12.05
2023-04-14T20:14:47.107Z,10.88
2023-04-14T20:17:13.447Z,13.32
2023-04-14T20:19:39.762Z,11.18
2023-04-14T20:22:06.359Z,10.43
2023-04-14T20:24:32.673Z,8.05
2023-04-14T20:26:58.906Z,28.20
2023-04-14T20:29:25.287Z,18.90
2023-04-14T20:31:53.297Z,10.85
2023-04-14T20:34:19.726Z,22.40
2023-04-14T20:36:46.188Z,16.50
2023-04-14T20:39:12.918Z,11.65
2023-04-14T20:41:39.206Z,13.05
2023-04-14T20:44:06.175Z,11.32
2023-04-14T20:46:32.563Z,12.27
2023-04-14T20:49:00.866Z,10.77
2023-04-14T20:51:27.489Z,11.07
2023-04-14T20:53:53.788Z,8.05
2023-04-14T20:56:20.006Z,11.15
2023-04-14T20:58:46.233Z,9.73
2023-04-14T21:01:12.651Z,10.93
2023-04-14T21:03:39.624Z,8.88
2023-04-14T21:06:06.556Z,6.75
2023-04-14T21:08:32.778Z,8.90
2023-04-14T21:11:16.292Z,8.77
2023-04-14T21:15:30.410Z,8.55
2023-04-14T21:16:30.539Z,10.23
2023-04-14T21:18:57.248Z,9.95
2023-04-14T21:21:23.453Z,8.60
2023-04-14T21:23:49.747Z,8.05
2023-04-14T21:26:16.488Z,9.32
2023-04-14T21:28:42.839Z,9.23
2023-04-14T21:31:10.265Z,8.45
2023-04-14T21:33:39.270Z,7.97
2023-04-14T21:36:05.589Z,7.30
2023-04-14T21:38:31.812Z,9.73
2023-04-14T21:40:58.016Z,9.85
2023-04-14T21:43:24.195Z,9.60
2023-04-14T21:45:50.545Z,11.40
2023-04-14T21:48:17.698Z,12.07
2023-04-14T21:50:43.906Z,10.85
2023-04-14T21:53:10.200Z,10.13
2023-04-14T21:55:36.953Z,11.68
2023-04-14T21:58:04.428Z,9.63
2023-04-14T22:00:30.980Z,10.00
2023-04-14T22:02:57.405Z,10.73
2023-04-14T22:05:23.688Z,9.15
2023-04-14T22:07:49.923Z,9.90
2023-04-14T22:10:16.130Z,7.25
2023-04-14T22:12:43.484Z,8.93
2023-04-14T22:15:10.366Z,8.55
2023-04-14T22:17:37.356Z,8.00
2023-04-14T22:20:05.986Z,8.40
2023-04-14T22:22:32.833Z,9.95
2023-04-14T22:24:59.120Z,8.52
2023-04-14T22:27:25.412Z,8.70
2023-04-14T22:29:52.147Z,9.82
2023-04-14T22:32:18.360Z,10.38
2023-04-14T22:34:44.622Z,11.02
2023-04-14T22:37:11.230Z,8.50
2023-04-14T22:39:37.505Z,10.52
2023-04-14T22:42:03.769Z,11.48
2023-04-14T22:44:29.970Z,10.23
2023-04-14T22:46:56.516Z,9.68
2023-04-14T22:49:22.771Z,17.75
2023-04-14T22:51:48.990Z,15.93
2023-04-14T22:54:15.223Z,12.57
2023-04-14T22:56:41.411Z,12.15
2023-04-14T22:59:07.649Z,10.18
2023-04-14T23:01:33.974Z,11.48
2023-04-14T23:04:00.397Z,13.40
2023-04-14T23:06:26.812Z,10.23
2023-04-14T23:08:53.094Z,10.15
2023-04-14T23:11:20.892Z,9.75
2023-04-14T23:13:47.761Z,8.52
2023-04-14T23:16:14.133Z,10.00
2023-04-14T23:18:40.517Z,8.32
2023-04-14T23:21:06.710Z,9.82
2023-04-14T23:23:32.917Z,9.32
2023-04-14T23:25:59.202Z,7.65
2023-04-14T23:28:25.527Z,10.02
2023-04-14T23:30:52.884Z,9.48
2023-04-14T23:33:19.550Z,5.13
2023-04-14T23:35:46.356Z,10.02
2023-04-14T23:38:12.575Z,6.97
2023-04-14T23:40:38.813Z,6.63
2023-04-14T23:43:05.047Z,6.05
2023-04-14T23:45:36.781Z,9.23
2023-04-14T23:48:03.895Z,7.45
2023-04-14T23:51:00.154Z,7.82
2023-04-14T23:53:16.889Z,9.25
2023-04-14T23:55:43.342Z,8.43
2023-04-14T23:58:09.564Z,9.43
